CheckWX is a tool to help pilots better visualize weather data.  It is not intended as a substitute for an official pre-flight weather briefing.

03:09:41 UTC

CYQR METAR
Regina International Airport
Regina, Canada
Current

1 hour ago

CYQR 070200Z 29013KT 15SM FEW020 FEW220 M01/M04 A2967 RMK SC1CI1 SC TR CI TR SLP077
Observed
Apr-7 @ 02:00 UTC
Wind
  • 290° at 13 KTS
Visibility
Flight Rules
VFR
Cloud Levels
  • Few at 2,000' AGL
  • Few at 22,000' AGL
Temperature
-1°C / 30°F
Dewpoint
-4°C / 25°F
Humidity
80%
Altimeter
29.67" Hg
Pressure
1004.72 hPa
Previous

2 hours ago

CYQR 070100Z 29015KT 15SM SCT022 SCT080 01/M03 A2966 RMK SC4AC1 AC TR SLP072
Observed
Apr-7 @ 01:00 UTC
Wind
  • 290° at 15 KTS
Visibility
Flight Rules
VFR
Cloud Levels
  • Scattered at 2,200' AGL
  • Scattered at 8,000' AGL
Temperature
C / 34°F
Dewpoint
-3°C / 27°F
Humidity
75%
Altimeter
29.66" Hg
Pressure
1004.42 hPa
Previous

3 hours ago

CYQR 070037Z 28021G26KT 15SM SCT020 BKN088 02/M03 A2965 RMK SC4AC1 SLP069
Observed
Apr-7 @ 00:37 UTC
Wind
  • 280° at 21 KTS
  • Gusting to 26 KTS
Visibility
Flight Rules
VFR
Cloud Levels
  • Scattered at 2,000' AGL
  • Broken at 8,800' AGL
Temperature
C / 36°F
Dewpoint
-3°C / 27°F
Humidity
70%
Altimeter
29.65" Hg
Pressure
1004.02 hPa